createdAt,value
2017-10-10T00:01:05.130Z,37.90
2017-10-10T00:03:39.983Z,44.70
2017-10-10T00:06:14.688Z,37.43
2017-10-10T00:08:49.733Z,41.73
2017-10-10T00:11:24.897Z,41.90
2017-10-10T00:13:59.957Z,36.77
2017-10-10T00:16:34.722Z,36.80
2017-10-10T00:19:09.429Z,44.40
2017-10-10T00:21:44.117Z,40.83
2017-10-10T00:24:18.841Z,35.70
2017-10-10T00:26:53.536Z,36.00
2017-10-10T00:29:28.294Z,40.23
2017-10-10T00:32:03.049Z,36.63
2017-10-10T00:34:37.877Z,34.97
2017-10-10T00:37:12.784Z,32.50
2017-10-10T00:39:48.349Z,32.37
2017-10-10T00:42:23.193Z,32.90
2017-10-10T00:44:57.984Z,33.57
2017-10-10T00:47:33.769Z,32.53
2017-10-10T00:50:07.913Z,29.13
2017-10-10T00:52:42.581Z,34.13
2017-10-10T00:55:17.530Z,35.03
2017-10-10T00:57:51.917Z,32.00
2017-10-10T01:00:26.901Z,33.80
2017-10-10T01:03:01.516Z,30.43
2017-10-10T01:05:37.510Z,35.87
2017-10-10T01:08:12.873Z,33.60
2017-10-10T01:10:47.376Z,34.43
2017-10-10T01:13:22.085Z,35.40
2017-10-10T01:15:56.801Z,30.47
2017-10-10T01:18:31.866Z,32.10
2017-10-10T01:21:06.581Z,32.57
2017-10-10T01:23:40.742Z,35.30
2017-10-10T01:26:15.498Z,34.70
2017-10-10T01:28:49.990Z,36.67
2017-10-10T01:31:24.633Z,33.70
2017-10-10T01:33:59.704Z,36.50
2017-10-10T01:36:34.113Z,36.10
2017-10-10T01:39:08.950Z,36.83
2017-10-10T01:41:44.043Z,39.63
2017-10-10T01:44:18.744Z,34.83
2017-10-10T01:46:53.445Z,34.80
2017-10-10T01:49:28.012Z,36.30
2017-10-10T01:52:02.642Z,36.43
2017-10-10T01:54:37.165Z,31.77
2017-10-10T01:57:11.912Z,36.17
2017-10-10T01:59:46.721Z,36.00
2017-10-10T02:02:21.538Z,35.70
2017-10-10T02:04:56.156Z,36.27
2017-10-10T02:07:30.916Z,32.53
2017-10-10T02:10:06.011Z,34.97
2017-10-10T02:12:41.989Z,37.80
2017-10-10T02:15:16.505Z,46.00
2017-10-10T02:17:51.376Z,38.43
2017-10-10T02:20:26.434Z,38.07
2017-10-10T02:23:01.796Z,41.00
2017-10-10T02:25:36.557Z,36.90
2017-10-10T02:28:11.446Z,46.23
2017-10-10T02:30:46.078Z,42.43
2017-10-10T02:33:20.825Z,41.03
2017-10-10T02:35:55.514Z,39.73
2017-10-10T02:38:30.070Z,45.33
2017-10-10T02:41:04.753Z,43.97
2017-10-10T02:43:39.303Z,49.47
2017-10-10T02:46:14.061Z,45.67
2017-10-10T02:48:48.445Z,45.13
2017-10-10T02:51:23.107Z,43.30
2017-10-10T02:53:58.110Z,48.37
2017-10-10T02:56:32.501Z,42.37
2017-10-10T02:59:07.465Z,49.03
2017-10-10T03:01:42.176Z,45.63
2017-10-10T03:04:16.820Z,49.47
2017-10-10T03:06:51.653Z,42.17
2017-10-10T03:09:26.330Z,45.07
2017-10-10T03:12:00.778Z,40.27
2017-10-10T03:14:35.425Z,41.67
2017-10-10T03:17:10.348Z,45.07
2017-10-10T03:19:45.098Z,51.17
2017-10-10T03:22:19.849Z,41.00
2017-10-10T03:24:54.525Z,40.77
2017-10-10T03:27:29.183Z,45.47
2017-10-10T03:32:44.684Z,47.63
2017-10-10T03:35:19.221Z,44.47
2017-10-10T03:37:53.956Z,43.73
2017-10-10T03:40:28.669Z,48.40
2017-10-10T03:43:03.382Z,42.73
2017-10-10T03:45:39.060Z,44.70
2017-10-10T03:48:13.681Z,50.50
2017-10-10T03:50:48.745Z,52.87
2017-10-10T03:53:23.141Z,55.50
2017-10-10T03:55:57.789Z,51.00
2017-10-10T03:58:32.321Z,60.23
2017-10-10T04:01:07.844Z,64.70
2017-10-10T04:03:42.504Z,65.43
2017-10-10T04:06:17.067Z,50.13
2017-10-10T04:08:51.810Z,52.60
2017-10-10T04:11:26.887Z,46.00
2017-10-10T04:14:01.393Z,52.47
2017-10-10T04:16:36.174Z,53.70
2017-10-10T04:19:11.953Z,55.40
2017-10-10T04:21:46.509Z,67.10
2017-10-10T04:24:21.129Z,58.17
2017-10-10T04:26:55.904Z,58.23
2017-10-10T04:29:30.717Z,56.60
2017-10-10T04:32:05.362Z,61.07
2017-10-10T04:34:40.147Z,62.27
2017-10-10T04:37:14.869Z,64.70
2017-10-10T04:39:49.755Z,68.60
2017-10-10T04:42:24.673Z,74.07
2017-10-10T04:44:59.358Z,74.50
2017-10-10T04:47:34.181Z,74.33
2017-10-10T04:50:08.958Z,79.13
2017-10-10T04:52:44.034Z,80.83
2017-10-10T04:55:18.614Z,80.57
2017-10-10T04:57:53.464Z,80.43
2017-10-10T05:00:27.988Z,85.03
2017-10-10T05:03:02.481Z,78.57
2017-10-10T05:05:37.297Z,82.03
2017-10-10T05:08:12.325Z,83.70
2017-10-10T05:10:47.313Z,87.63
2017-10-10T05:13:21.989Z,84.53
2017-10-10T05:15:56.726Z,81.77
2017-10-10T05:18:31.310Z,92.53
2017-10-10T05:21:06.396Z,88.63
2017-10-10T05:23:40.986Z,97.23
2017-10-10T05:26:16.289Z,90.93
2017-10-10T05:28:51.462Z,86.03
2017-10-10T05:31:25.968Z,94.43
2017-10-10T05:34:01.066Z,89.87
2017-10-10T05:36:35.352Z,86.40
2017-10-10T05:39:10.398Z,92.67
2017-10-10T05:41:45.243Z,85.33
2017-10-10T05:44:20.849Z,81.80
2017-10-10T05:46:55.564Z,88.90
2017-10-10T05:49:30.667Z,87.80
2017-10-10T05:52:05.964Z,86.00
2017-10-10T05:54:40.817Z,90.87
2017-10-10T05:57:15.557Z,82.13
2017-10-10T05:59:50.577Z,100.50
2017-10-10T06:02:25.290Z,106.57
2017-10-10T06:05:00.168Z,102.30
2017-10-10T06:07:34.505Z,104.63
2017-10-10T06:10:09.302Z,91.20
2017-10-10T06:12:44.197Z,99.10
2017-10-10T06:15:18.604Z,102.93
2017-10-10T06:17:53.510Z,86.87
2017-10-10T06:20:28.377Z,87.97
2017-10-10T06:23:03.208Z,86.83
2017-10-10T06:25:37.997Z,93.43
2017-10-10T06:28:12.514Z,83.80
2017-10-10T06:30:47.342Z,75.27
2017-10-10T06:33:21.944Z,88.87
2017-10-10T06:35:56.622Z,84.13
2017-10-10T06:38:31.645Z,80.00
2017-10-10T06:41:07.153Z,72.70
2017-10-10T06:43:41.521Z,74.23
2017-10-10T06:46:16.609Z,68.90
2017-10-10T06:48:52.248Z,74.43
2017-10-10T06:51:27.733Z,66.77
2017-10-10T06:54:02.337Z,64.10
2017-10-10T06:56:37.202Z,72.93
2017-10-10T06:59:11.737Z,65.33
2017-10-10T07:01:46.556Z,57.17
2017-10-10T07:04:21.744Z,70.63
2017-10-10T07:06:56.184Z,55.40
2017-10-10T07:09:31.286Z,50.80
2017-10-10T07:12:06.005Z,47.60
2017-10-10T07:14:40.733Z,48.10
2017-10-10T07:17:15.419Z,54.97
2017-10-10T07:19:50.285Z,46.00
2017-10-10T07:22:25.049Z,49.27
2017-10-10T07:24:59.774Z,49.93
2017-10-10T07:27:34.509Z,50.10
2017-10-10T07:30:09.276Z,50.97
2017-10-10T07:32:43.961Z,47.17
2017-10-10T07:35:18.897Z,46.93
2017-10-10T07:37:53.425Z,50.60
2017-10-10T07:40:28.173Z,51.93
2017-10-10T07:43:02.810Z,58.00
2017-10-10T07:45:37.524Z,66.57
2017-10-10T07:48:12.264Z,53.47
2017-10-10T07:50:47.993Z,60.37
2017-10-10T07:53:23.459Z,52.27
2017-10-10T07:55:58.194Z,60.93
2017-10-10T07:58:32.925Z,60.73
2017-10-10T08:01:07.669Z,59.97
2017-10-10T08:03:42.405Z,62.60
2017-10-10T08:06:17.176Z,60.37
2017-10-10T08:08:51.909Z,57.53
2017-10-10T08:11:26.737Z,53.00
2017-10-10T08:14:01.465Z,51.77
2017-10-10T08:16:37.305Z,62.60
2017-10-10T08:19:11.954Z,49.37
2017-10-10T08:21:46.701Z,50.47
2017-10-10T08:24:21.433Z,53.50
2017-10-10T08:26:56.285Z,51.30
2017-10-10T08:29:30.870Z,41.13
2017-10-10T08:32:05.537Z,45.37
2017-10-10T08:34:40.246Z,46.57
2017-10-10T08:37:14.897Z,52.27
2017-10-10T08:39:49.620Z,43.60
2017-10-10T08:42:33.584Z,43.70
2017-10-10T08:45:08.769Z,44.57
2017-10-10T08:47:43.508Z,38.90
2017-10-10T08:50:18.442Z,40.23
2017-10-10T08:52:53.309Z,40.80
2017-10-10T08:55:28.045Z,39.80
2017-10-10T08:58:02.870Z,44.10
2017-10-10T09:00:37.525Z,41.83
2017-10-10T09:03:12.174Z,41.80
2017-10-10T09:05:46.977Z,37.30
2017-10-10T09:08:21.805Z,42.00
2017-10-10T09:10:56.809Z,41.33
2017-10-10T09:13:31.775Z,40.63
2017-10-10T09:16:07.026Z,40.87
2017-10-10T09:18:41.545Z,43.17
2017-10-10T09:21:16.372Z,37.80
2017-10-10T09:23:51.304Z,43.60
2017-10-10T09:26:25.776Z,40.33
2017-10-10T09:29:01.417Z,38.57
2017-10-10T09:31:36.169Z,40.13
2017-10-10T09:34:10.920Z,41.13
2017-10-10T09:36:46.692Z,39.33
2017-10-10T09:39:21.440Z,37.40
2017-10-10T09:41:56.034Z,38.87
2017-10-10T09:44:30.777Z,40.23
2017-10-10T09:47:05.878Z,35.33
2017-10-10T09:49:40.173Z,36.20
2017-10-10T09:52:14.610Z,35.00
2017-10-10T09:54:49.584Z,34.70
2017-10-10T09:57:24.220Z,42.60
2017-10-10T09:59:58.868Z,36.10
2017-10-10T10:02:33.705Z,41.73
2017-10-10T10:05:08.774Z,32.33
2017-10-10T10:07:43.965Z,39.80
2017-10-10T10:10:18.742Z,41.40
2017-10-10T10:12:53.177Z,45.20
2017-10-10T10:15:27.996Z,39.00
2017-10-10T10:18:02.681Z,31.60
2017-10-10T10:20:37.379Z,34.27
2017-10-10T10:23:12.105Z,33.80
2017-10-10T10:25:46.785Z,26.20
2017-10-10T10:28:21.336Z,27.33
2017-10-10T10:30:55.989Z,32.87
2017-10-10T10:33:30.757Z,29.50
2017-10-10T10:36:05.620Z,24.90
2017-10-10T10:38:40.317Z,27.27
2017-10-10T10:41:15.153Z,31.30
2017-10-10T10:43:52.785Z,26.70
2017-10-10T10:46:27.781Z,29.70
2017-10-10T10:49:02.689Z,31.30
2017-10-10T10:51:37.420Z,25.60
2017-10-10T10:54:12.202Z,33.50
2017-10-10T10:56:46.797Z,29.57
2017-10-10T10:59:21.705Z,31.80
2017-10-10T11:01:56.357Z,29.53
2017-10-10T11:04:31.084Z,29.07
2017-10-10T11:07:05.842Z,32.17
2017-10-10T11:09:40.633Z,29.07
2017-10-10T11:12:15.109Z,32.80
2017-10-10T11:14:50.051Z,25.20
2017-10-10T11:17:24.625Z,31.37
2017-10-10T11:19:59.232Z,30.60
2017-10-10T11:22:34.010Z,30.27
2017-10-10T11:25:08.534Z,32.73
2017-10-10T11:27:43.237Z,30.27
2017-10-10T11:30:17.725Z,34.70
2017-10-10T11:32:53.052Z,27.80
2017-10-10T11:35:27.565Z,27.20
2017-10-10T11:38:02.241Z,26.20
2017-10-10T11:40:37.189Z,26.60
2017-10-10T11:43:12.213Z,27.80
2017-10-10T11:45:47.081Z,29.10
2017-10-10T11:48:21.945Z,28.00
2017-10-10T11:50:56.701Z,25.00
2017-10-10T11:53:31.577Z,25.77
2017-10-10T11:56:06.821Z,24.93
2017-10-10T11:58:41.252Z,22.97
2017-10-10T12:01:15.949Z,28.67
2017-10-10T12:03:50.860Z,34.67
2017-10-10T12:06:25.769Z,28.53
2017-10-10T12:09:00.593Z,26.03
2017-10-10T12:11:36.180Z,30.00
2017-10-10T12:14:10.889Z,27.30
2017-10-10T12:16:45.541Z,26.70
2017-10-10T12:19:20.290Z,25.90
2017-10-10T12:21:55.092Z,27.37
2017-10-10T12:24:30.017Z,25.73
2017-10-10T12:27:04.830Z,27.30
2017-10-10T12:29:39.554Z,26.37
2017-10-10T12:32:14.314Z,32.73
2017-10-10T12:34:49.082Z,26.70
2017-10-10T12:37:24.285Z,26.93
2017-10-10T12:39:59.622Z,26.13
2017-10-10T12:42:34.241Z,20.30
2017-10-10T12:45:09.316Z,25.20
2017-10-10T12:47:44.186Z,25.53
2017-10-10T12:50:18.665Z,28.43
2017-10-10T12:52:53.481Z,21.27
2017-10-10T12:55:28.305Z,20.77
2017-10-10T12:58:03.113Z,20.87
2017-10-10T13:00:37.993Z,23.50
2017-10-10T13:03:12.796Z,22.10
2017-10-10T13:05:47.517Z,22.70
2017-10-10T13:08:22.385Z,21.07
2017-10-10T13:10:57.256Z,22.93
2017-10-10T13:13:32.030Z,22.97
2017-10-10T13:16:06.626Z,20.63
2017-10-10T13:18:41.263Z,24.83
2017-10-10T13:21:16.738Z,22.10
2017-10-10T13:23:51.491Z,24.27
2017-10-10T13:26:27.601Z,23.37
2017-10-10T13:29:02.837Z,23.07
2017-10-10T13:31:37.481Z,23.70
2017-10-10T13:34:12.220Z,25.13
2017-10-10T13:36:47.173Z,21.50
2017-10-10T13:39:21.045Z,22.60
2017-10-10T13:41:56.109Z,24.43
2017-10-10T13:44:30.832Z,23.83
2017-10-10T13:47:05.697Z,25.73
2017-10-10T13:49:40.469Z,20.63
2017-10-10T13:52:15.401Z,26.03
2017-10-10T13:54:50.302Z,22.07
2017-10-10T13:57:25.059Z,21.60
2017-10-10T13:59:59.616Z,24.40
2017-10-10T14:02:34.665Z,23.60
2017-10-10T14:05:09.199Z,22.60
2017-10-10T14:07:43.802Z,23.40
2017-10-10T14:10:18.518Z,22.63
2017-10-10T14:12:53.229Z,20.80
2017-10-10T14:15:28.006Z,19.60
2017-10-10T14:18:02.789Z,21.80
2017-10-10T14:20:37.838Z,20.30
2017-10-10T14:23:12.893Z,20.00
2017-10-10T14:25:47.717Z,25.60
2017-10-10T14:28:22.396Z,19.63
2017-10-10T14:30:57.177Z,19.77
2017-10-10T14:33:31.977Z,16.90
2017-10-10T14:36:07.634Z,19.07
2017-10-10T14:38:42.360Z,19.63
2017-10-10T14:41:17.116Z,18.13
2017-10-10T14:43:51.737Z,19.80
2017-10-10T14:46:26.561Z,20.63
2017-10-10T14:49:01.255Z,16.43
2017-10-10T14:51:36.957Z,22.47
2017-10-10T14:54:11.705Z,19.80
2017-10-10T14:56:46.489Z,21.73
2017-10-10T14:59:21.217Z,21.40
2017-10-10T15:01:56.017Z,19.27
2017-10-10T15:04:30.545Z,22.60
2017-10-10T15:07:05.450Z,19.37
2017-10-10T15:09:40.225Z,19.73
2017-10-10T15:12:15.057Z,20.33
2017-10-10T15:14:49.689Z,20.70
2017-10-10T15:17:24.561Z,20.53
2017-10-10T15:19:59.346Z,23.13
2017-10-10T15:22:34.092Z,20.27
2017-10-10T15:25:08.925Z,21.63
2017-10-10T15:27:43.675Z,22.70
2017-10-10T15:30:18.473Z,19.23
2017-10-10T15:32:53.181Z,21.40
2017-10-10T15:35:27.937Z,19.40
2017-10-10T15:38:02.639Z,23.80
2017-10-10T15:40:38.297Z,24.90
2017-10-10T15:43:13.021Z,22.33
2017-10-10T15:45:48.553Z,27.17
2017-10-10T15:48:24.270Z,24.47
2017-10-10T15:50:59.932Z,26.93
2017-10-10T15:53:34.606Z,24.83
2017-10-10T15:56:09.361Z,25.47
2017-10-10T15:58:44.142Z,25.07
2017-10-10T16:01:18.705Z,22.40
2017-10-10T16:03:53.502Z,24.90
2017-10-10T16:06:28.210Z,22.80
2017-10-10T16:09:02.861Z,22.80
2017-10-10T16:11:37.774Z,24.07
2017-10-10T16:14:12.763Z,23.20
2017-10-10T16:16:48.249Z,22.53
2017-10-10T16:19:23.232Z,22.87
2017-10-10T16:21:59.092Z,28.27
2017-10-10T16:24:33.925Z,27.60
2017-10-10T16:27:08.937Z,24.83
2017-10-10T16:29:43.701Z,26.50
2017-10-10T16:32:18.491Z,23.40
2017-10-10T16:34:53.057Z,25.07
2017-10-10T16:37:27.752Z,24.17
2017-10-10T16:40:02.795Z,26.67
2017-10-10T16:42:37.415Z,23.93
2017-10-10T16:45:12.042Z,25.80
2017-10-10T16:47:46.945Z,29.30
2017-10-10T16:50:21.633Z,29.60
2017-10-10T16:52:57.196Z,24.17
2017-10-10T16:55:31.880Z,26.03
2017-10-10T16:58:06.509Z,23.77
2017-10-10T17:00:41.136Z,23.77
2017-10-10T17:03:15.741Z,24.70
2017-10-10T17:05:50.397Z,20.47
2017-10-10T17:08:25.315Z,23.20
2017-10-10T17:10:59.912Z,24.03
2017-10-10T17:13:34.755Z,21.37
2017-10-10T17:16:09.089Z,24.53
2017-10-10T17:18:44.342Z,21.50
2017-10-10T17:21:19.169Z,21.63
2017-10-10T17:23:53.926Z,22.70
2017-10-10T17:26:28.652Z,23.70
2017-10-10T17:29:03.525Z,22.00
2017-10-10T17:31:38.157Z,20.80
2017-10-10T17:34:13.206Z,21.30
2017-10-10T17:36:47.977Z,22.60
2017-10-10T17:39:22.988Z,18.80
2017-10-10T17:41:57.940Z,21.73
2017-10-10T17:44:32.898Z,21.10
2017-10-10T17:47:07.908Z,20.20
2017-10-10T17:49:42.618Z,22.07
2017-10-10T17:52:18.348Z,19.63
2017-10-10T17:54:53.249Z,20.20
2017-10-10T17:57:27.769Z,22.40
2017-10-10T18:00:02.701Z,19.67
2017-10-10T18:02:37.345Z,23.17
2017-10-10T18:05:12.077Z,21.80
2017-10-10T18:07:46.889Z,21.00
2017-10-10T18:10:21.797Z,20.03
2017-10-10T18:12:56.544Z,22.70
2017-10-10T18:15:31.338Z,19.67
2017-10-10T18:18:06.172Z,21.30
2017-10-10T18:20:40.849Z,21.57
2017-10-10T18:23:15.810Z,22.90
2017-10-10T18:25:50.696Z,19.80
2017-10-10T18:28:25.516Z,22.30
2017-10-10T18:31:00.429Z,19.47
2017-10-10T18:33:35.150Z,23.53
2017-10-10T18:36:09.886Z,25.37
2017-10-10T18:38:44.362Z,23.30
2017-10-10T18:41:19.381Z,27.03
2017-10-10T18:43:54.048Z,25.13
2017-10-10T18:46:28.705Z,25.00
2017-10-10T18:49:03.670Z,26.80
2017-10-10T18:51:38.701Z,25.40
2017-10-10T18:54:13.550Z,30.00
2017-10-10T18:56:48.262Z,31.07
2017-10-10T18:59:23.035Z,25.83
2017-10-10T19:01:57.817Z,26.57
2017-10-10T19:04:32.637Z,25.30
2017-10-10T19:07:07.373Z,23.60
2017-10-10T19:09:42.187Z,23.20
2017-10-10T19:12:17.006Z,25.43
2017-10-10T19:14:51.720Z,27.80
2017-10-10T19:17:26.461Z,26.13
2017-10-10T19:20:01.208Z,26.50
2017-10-10T19:22:36.145Z,25.70
2017-10-10T19:25:11.010Z,26.53
2017-10-10T19:27:45.613Z,24.83
2017-10-10T19:30:20.325Z,24.97
2017-10-10T19:32:55.034Z,25.10
2017-10-10T19:35:29.663Z,31.80
2017-10-10T19:38:04.161Z,32.80
2017-10-10T19:40:39.002Z,29.30
2017-10-10T19:43:13.847Z,33.07
2017-10-10T19:45:48.698Z,31.20
2017-10-10T19:48:23.430Z,25.70
2017-10-10T19:50:58.500Z,25.70
2017-10-10T19:53:33.209Z,29.27
2017-10-10T19:56:07.905Z,24.30
2017-10-10T19:58:42.688Z,26.80
2017-10-10T20:01:17.565Z,23.00
2017-10-10T20:03:52.497Z,23.97
2017-10-10T20:06:27.273Z,24.23
2017-10-10T20:09:02.077Z,26.47
2017-10-10T20:11:36.853Z,31.17
2017-10-10T20:14:11.803Z,26.80
2017-10-10T20:16:46.662Z,28.67
2017-10-10T20:19:21.466Z,26.63
2017-10-10T20:21:56.021Z,24.43
2017-10-10T20:24:30.489Z,29.10
2017-10-10T20:27:05.082Z,28.00
2017-10-10T20:29:39.912Z,30.97
2017-10-10T20:32:14.907Z,29.10
2017-10-10T20:34:50.484Z,27.77
2017-10-10T20:37:27.145Z,31.17
2017-10-10T20:40:01.865Z,26.87
2017-10-10T20:42:36.357Z,28.80
2017-10-10T20:45:11.149Z,31.50
2017-10-10T20:47:45.909Z,29.50
2017-10-10T20:50:20.536Z,25.63
2017-10-10T20:52:55.428Z,26.40
2017-10-10T20:55:30.265Z,26.67
2017-10-10T20:58:05.058Z,26.83
2017-10-10T21:00:39.821Z,29.57
2017-10-10T21:03:14.692Z,31.70
2017-10-10T21:05:50.377Z,28.07
2017-10-10T21:08:25.406Z,30.20
2017-10-10T21:11:00.385Z,25.17
2017-10-10T21:13:35.238Z,27.17
2017-10-10T21:16:10.193Z,30.03
2017-10-10T21:18:44.961Z,26.80
2017-10-10T21:21:19.898Z,25.50
2017-10-10T21:23:54.701Z,31.87
2017-10-10T21:26:29.386Z,28.50
2017-10-10T21:29:04.035Z,30.00
2017-10-10T21:31:38.765Z,28.63
2017-10-10T21:34:13.513Z,33.17
2017-10-10T21:36:48.474Z,29.73
2017-10-10T21:39:23.324Z,33.93
2017-10-10T21:41:58.109Z,34.43
2017-10-10T21:44:32.818Z,32.70
2017-10-10T21:47:07.696Z,34.50
2017-10-10T21:49:42.638Z,33.93
2017-10-10T21:52:17.365Z,36.40
2017-10-10T21:54:52.030Z,37.33
2017-10-10T21:57:26.753Z,39.47
2017-10-10T22:00:01.549Z,38.53
2017-10-10T22:02:37.177Z,37.80
2017-10-10T22:05:12.057Z,31.50
2017-10-10T22:07:46.891Z,35.60
2017-10-10T22:10:21.610Z,34.37
2017-10-10T22:12:56.345Z,33.43
2017-10-10T22:15:30.973Z,31.03
2017-10-10T22:18:05.677Z,28.00
2017-10-10T22:20:40.509Z,30.97
2017-10-10T22:23:15.649Z,28.90
2017-10-10T22:25:50.442Z,29.27
2017-10-10T22:28:25.069Z,29.27
2017-10-10T22:30:59.936Z,27.60
2017-10-10T22:33:34.793Z,28.17
2017-10-10T22:36:09.516Z,27.70
2017-10-10T22:38:44.550Z,30.23
2017-10-10T22:41:19.281Z,30.00
2017-10-10T22:43:54.033Z,29.10
2017-10-10T22:46:30.539Z,32.83
2017-10-10T22:49:05.892Z,26.27
2017-10-10T22:51:40.512Z,23.93
2017-10-10T22:54:15.224Z,26.13
2017-10-10T22:56:49.697Z,26.43
2017-10-10T23:08:43.970Z,26.17
2017-10-10T23:11:18.824Z,30.90
2017-10-10T23:13:53.605Z,25.80
2017-10-10T23:16:28.892Z,28.40
2017-10-10T23:19:04.140Z,31.57
2017-10-10T23:21:39.250Z,25.17
2017-10-10T23:24:14.381Z,28.40
2017-10-10T23:26:49.569Z,27.60
2017-10-10T23:29:24.298Z,25.60
2017-10-10T23:31:59.157Z,24.80
2017-10-10T23:34:34.141Z,26.80
2017-10-10T23:37:09.109Z,24.20
2017-10-10T23:39:44.453Z,27.03
2017-10-10T23:42:18.906Z,22.67
2017-10-10T23:44:54.009Z,24.57
2017-10-10T23:47:28.653Z,26.70
2017-10-10T23:50:03.382Z,25.17
2017-10-10T23:52:38.697Z,25.87
2017-10-10T23:55:13.937Z,27.23
2017-10-10T23:57:49.505Z,27.53
